10:41
Airports
History
Links
Donate
Help keep this website running!
PayPal
Bitcoin
Information on this page is community maintained and may be outdated or inaccurate and is intended for reference only or PC simulator navigating.
Always use approved charts for navigating.
1IA0
Brown Truck Sales
Brown Truck Sales (1IA0)
Corning, Iowa, United States (50841)
4
Lat/Lng:40° 53' 49.95" N / 94° 47' 27.91" W
40.897209 / -94.791085
Elevation:1300'ft 396mMSL
ID / ICAO:1IA0
Runways:1
Longest:(17-35) 611.5m 2,006ft Grass
Distance To
Airport ID:
Nearby VORs <50NM
Nearby NDBs
Nearby WeatherUpdated 05-25-17 10:35 GMT
Nearby weather at KICL, Schenck Field located 17.3 nautical miles from 1IA0
Altimeter: 29.70
Visibility: 6.0 statute miles
Wind: 0 knots (000°)
Temp: 5°c 41°f
Humidity: 100.0%

METAR: KICL 251035Z AUTO 00000KT 6SM BR CLR 05/05 A2970 RMK AO2 PWINO

(Powered by phpweather)
Runway 17 / 35
Dimensions:611.5 x 15.2m 2006' x 50'ft
Surface:Grass
Edge Lights:Low intensity
Runway 17 [A]Runway 35 [B]
Heading:175°TH 355°TH
Lat:
Lng:
40° 53' 59.79"N
94° 47' 29.05"W
40° 53' 40.11"N
94° 47' 26.77"W
User Notes and Comments
Google Map
Nearby Airports
(U) Corning Muni 7.0 NM
KCRZ NNE 15°
(U) Schenck Field 17.3 NM
KICL (WX) SW 225°
4 Bedford Muni 18.2 NM
Y46 S 169°
4 Jacobs 20.4 NM
4IA6 NW 309°
(R) Mercer Field 22.6 NM
IA36 ENE 57°
(R) Wallace Field 23.4 NM
1IA4 ENE 62°
(U) Creston Muni 23.9 NM
KCSQ (WX) ENE 68°
VFR Chart
Flight Planning at SkyVector.com